Bouthillier Airport

METAR CYHU TAF CYHU
-4 °C
°C
-
°C
52m
Alter
03:59:32
LT
02:59
UTC
0 ft

1.000

2.000

3.000

4.000

5.000

FEW 2.300
BKN 3.000
OVC 4.200
VFR
<?= Yii::t('app', 'Wind direction') ?> <?= Yii::t('app', 'of'); ?>
VAR
07:19
Sonne auf
86%
Luftfeuchtigkeit
Windscherung
Geschlossen/Schnee
RWY-Sichtweite
RWY Zustand
Vert. Sichtweite
Min. Sichtbarkeit
CAVOK
Trend
Korrektur
Besonderer Bericht
30,02 inHg
QNH
METAR CYHU 280208Z AUTO VRB02KT 6SM -SN FEW023 BKN030 OVC042 M04/M06 A3002 RMK SLP171
Leicht Schnee
0 kt
0 kt
21:00
IFR
5 kt
22:00
MVFR
10 kt
23:00
MVFR
10 kt
00:00
MVFR
10 kt
01:00
MVFR
10 kt
02:00
MVFR
10 kt
03:00
MVFR
10 kt
6 mi
Sichtweite
3.000 ft
Wolkendecke
2 kt
Wind
metar-taf.com/CRG3

Metar-Taf.com

Visueller Decoder

Wir und Dritte verfolgen dein Internetverhalten auf unserer Website mit Cookies. Wenn du fortfährst, gehen wir davon aus, dass du mit unserer Cookie-Richtlinie einverstanden bist.